createdAt,value
2023-03-01T00:01:09.844Z,18.40
2023-03-01T00:03:37.421Z,17.80
2023-03-01T00:06:06.573Z,18.60
2023-03-01T00:08:34.554Z,18.63
2023-03-01T00:11:03.830Z,18.23
2023-03-01T00:13:31.257Z,18.50
2023-03-01T00:16:00.102Z,18.20
2023-03-01T00:18:28.226Z,18.13
2023-03-01T00:20:56.756Z,18.67
2023-03-01T00:23:25.896Z,17.73
2023-03-01T00:25:54.440Z,17.80
2023-03-01T00:28:23.336Z,18.27
2023-03-01T00:30:52.345Z,18.00
2023-03-01T00:33:22.672Z,19.50
2023-03-01T00:35:52.718Z,18.90
2023-03-01T00:38:22.014Z,19.43
2023-03-01T00:40:50.839Z,19.80
2023-03-01T00:43:19.695Z,18.23
2023-03-01T00:45:47.275Z,18.07
2023-03-01T00:48:16.759Z,20.17
2023-03-01T00:50:47.502Z,19.37
2023-03-01T00:53:14.888Z,18.17
2023-03-01T00:55:42.963Z,18.63
2023-03-01T00:58:12.032Z,18.90
2023-03-01T01:00:43.349Z,18.43
2023-03-01T01:03:12.280Z,19.20
2023-03-01T01:05:39.718Z,19.00
2023-03-01T01:08:11.812Z,19.70
2023-03-01T01:10:40.921Z,18.93
2023-03-01T01:13:12.982Z,18.97
2023-03-01T01:15:43.579Z,18.73
2023-03-01T01:18:11.733Z,19.00
2023-03-01T01:20:39.271Z,19.30
2023-03-01T01:23:07.643Z,19.37
2023-03-01T01:25:39.170Z,19.60
2023-03-01T01:28:07.536Z,18.57
2023-03-01T01:30:35.318Z,18.77
2023-03-01T01:33:06.505Z,19.43
2023-03-01T01:35:34.707Z,19.60
2023-03-01T01:38:03.753Z,18.70
2023-03-01T01:40:33.558Z,18.93
2023-03-01T01:43:03.864Z,18.70
2023-03-01T01:45:35.232Z,18.43
2023-03-01T01:48:08.001Z,18.17
2023-03-01T01:50:39.836Z,17.60
2023-03-01T01:53:12.338Z,17.40
2023-03-01T01:55:43.996Z,18.33
2023-03-01T01:58:16.884Z,17.80
2023-03-01T02:00:46.449Z,17.47
2023-03-01T02:03:19.744Z,16.83
2023-03-01T02:05:55.709Z,17.43
2023-03-01T02:08:27.312Z,17.00
2023-03-01T02:10:57.017Z,17.63
2023-03-01T02:13:27.322Z,18.13
2023-03-01T02:15:56.235Z,17.33
2023-03-01T02:18:24.893Z,18.00
2023-03-01T02:21:00.156Z,17.10
2023-03-01T02:23:30.542Z,17.20
2023-03-01T02:26:05.478Z,17.63
2023-03-01T02:28:35.764Z,17.60
2023-03-01T02:31:22.651Z,16.83
2023-03-01T02:33:52.078Z,17.77
2023-03-01T02:36:20.922Z,17.87
2023-03-01T02:38:48.933Z,17.27
2023-03-01T02:41:20.421Z,17.47
2023-03-01T02:43:51.865Z,16.77
2023-03-01T02:46:23.202Z,18.03
2023-03-01T02:48:57.497Z,18.27
2023-03-01T02:51:36.807Z,18.50
2023-03-01T02:54:11.339Z,17.67
2023-03-01T02:56:41.180Z,17.67
2023-03-01T02:59:11.721Z,19.77
2023-03-01T03:01:45.469Z,19.47
2023-03-01T03:04:18.923Z,19.13
2023-03-01T03:06:53.449Z,19.23
2023-03-01T03:09:21.471Z,18.77
2023-03-01T03:11:48.881Z,19.47
2023-03-01T03:14:18.653Z,19.40
2023-03-01T03:16:50.095Z,20.40
2023-03-01T03:19:20.677Z,19.47
2023-03-01T03:21:50.442Z,18.80
2023-03-01T03:24:18.411Z,20.27
2023-03-01T03:26:45.799Z,19.90
2023-03-01T03:29:16.223Z,20.33
2023-03-01T03:31:47.626Z,19.67
2023-03-01T03:34:19.899Z,20.00
2023-03-01T03:36:48.604Z,19.73
2023-03-01T03:39:19.222Z,19.33
2023-03-01T03:41:47.996Z,18.87
2023-03-01T03:44:15.744Z,20.43
2023-03-01T03:46:46.341Z,20.37
2023-03-01T03:49:16.773Z,18.60
2023-03-01T03:51:44.594Z,18.67
2023-03-01T03:54:12.572Z,20.10
2023-03-01T03:56:43.572Z,20.03
2023-03-01T03:59:12.850Z,20.27
2023-03-01T04:01:40.937Z,19.57
2023-03-01T04:04:08.820Z,20.43
2023-03-01T04:06:40.179Z,19.87
2023-03-01T04:09:09.685Z,20.43
2023-03-01T04:11:40.170Z,19.73
2023-03-01T04:14:09.183Z,19.97
2023-03-01T04:16:38.472Z,20.63
2023-03-01T04:19:07.791Z,21.37
2023-03-01T04:21:38.047Z,20.17
2023-03-01T04:24:09.813Z,20.63
2023-03-01T04:26:38.750Z,20.40
2023-03-01T04:29:06.479Z,19.87
2023-03-01T04:31:35.039Z,19.43
2023-03-01T04:34:04.478Z,20.83
2023-03-01T04:36:33.211Z,20.07
2023-03-01T04:39:13.113Z,20.57
2023-03-01T04:41:42.085Z,20.30
2023-03-01T04:44:10.714Z,19.10
2023-03-01T04:46:39.544Z,19.83
2023-03-01T04:49:07.932Z,19.87
2023-03-01T04:51:35.887Z,18.93
2023-03-01T04:54:03.311Z,18.90
2023-03-01T04:56:35.397Z,18.67
2023-03-01T04:59:06.621Z,18.23
2023-03-01T05:01:36.428Z,19.23
2023-03-01T05:04:06.226Z,18.97
2023-03-01T05:06:36.090Z,18.23
2023-03-01T05:09:04.016Z,19.07
2023-03-01T05:11:34.920Z,18.43
2023-03-01T05:14:02.907Z,18.40
2023-03-01T05:16:34.192Z,18.70
2023-03-01T05:19:13.731Z,17.93
2023-03-01T05:22:02.645Z,18.87
2023-03-01T05:24:31.022Z,17.13
2023-03-01T05:26:58.497Z,18.30
2023-03-01T05:29:26.822Z,18.13
2023-03-01T05:31:58.934Z,18.40
2023-03-01T05:34:26.762Z,19.07
2023-03-01T05:36:55.183Z,18.47
2023-03-01T05:39:25.273Z,18.83
2023-03-01T05:41:54.340Z,18.07
2023-03-01T05:44:22.304Z,19.33
2023-03-01T05:46:53.135Z,18.07
2023-03-01T05:49:26.596Z,18.53
2023-03-01T05:51:56.224Z,18.43
2023-03-01T05:54:23.860Z,18.87
2023-03-01T05:56:51.658Z,19.20
2023-03-01T05:59:20.638Z,17.80
2023-03-01T06:01:48.828Z,17.97
2023-03-01T06:04:17.682Z,18.43
2023-03-01T06:06:46.873Z,19.00
2023-03-01T06:09:15.765Z,19.27
2023-03-01T06:11:43.216Z,18.63
2023-03-01T06:14:13.697Z,19.53
2023-03-01T06:16:41.088Z,17.80
2023-03-01T06:19:08.501Z,18.53
2023-03-01T06:21:35.869Z,18.77
2023-03-01T06:24:07.023Z,18.43
2023-03-01T06:26:34.856Z,19.03
2023-03-01T06:29:02.265Z,21.97
2023-03-01T06:31:29.633Z,18.73
2023-03-01T06:33:58.400Z,19.07
2023-03-01T06:36:25.815Z,18.87
2023-03-01T06:38:55.046Z,19.07
2023-03-01T06:41:25.716Z,17.57
2023-03-01T06:43:54.144Z,18.80
2023-03-01T06:46:23.277Z,18.27
2023-03-01T06:48:53.439Z,18.97
2023-03-01T06:51:22.739Z,19.30
2023-03-01T06:53:51.072Z,20.00
2023-03-01T06:56:20.237Z,20.27
2023-03-01T06:58:49.212Z,19.00
2023-03-01T07:01:16.962Z,20.07
2023-03-01T07:03:45.417Z,19.53
2023-03-01T07:06:12.845Z,19.30
2023-03-01T07:08:40.539Z,19.17
2023-03-01T07:11:08.968Z,18.90
2023-03-01T07:13:38.178Z,19.10
2023-03-01T07:16:08.049Z,18.60
2023-03-01T07:18:35.616Z,18.20
2023-03-01T07:21:06.657Z,17.70
2023-03-01T07:23:34.311Z,19.07
2023-03-01T07:26:02.179Z,19.33
2023-03-01T07:28:31.081Z,19.00
2023-03-01T07:31:02.769Z,18.77
2023-03-01T07:33:31.488Z,18.23
2023-03-01T07:36:00.651Z,18.70
2023-03-01T07:38:28.788Z,18.77
2023-03-01T07:41:00.779Z,18.13
2023-03-01T07:43:29.412Z,18.63
2023-03-01T07:45:57.147Z,18.17
2023-03-01T07:48:24.893Z,20.47
2023-03-01T07:50:53.625Z,18.83
2023-03-01T07:53:21.076Z,18.80
2023-03-01T07:55:48.741Z,18.60
2023-03-01T07:58:16.497Z,18.87
2023-03-01T08:00:43.868Z,18.13
2023-03-01T08:03:12.387Z,17.83
2023-03-01T08:05:40.286Z,18.83
2023-03-01T08:08:09.013Z,18.17
2023-03-01T08:10:38.945Z,18.10
2023-03-01T08:13:07.668Z,18.83
2023-03-01T08:15:35.100Z,18.77
2023-03-01T08:18:03.636Z,18.17
2023-03-01T08:20:31.152Z,19.47
2023-03-01T08:23:00.448Z,18.80
2023-03-01T08:25:30.428Z,19.10
2023-03-01T08:27:58.447Z,18.93
2023-03-01T08:30:28.061Z,18.60
2023-03-01T08:32:55.649Z,19.33
2023-03-01T08:35:23.573Z,18.03
2023-03-01T08:37:51.465Z,18.03
2023-03-01T08:40:19.284Z,19.20
2023-03-01T08:42:49.208Z,19.13
2023-03-01T08:45:19.177Z,19.37
2023-03-01T08:47:47.835Z,19.83
2023-03-01T08:50:15.248Z,23.70
2023-03-01T08:52:42.691Z,21.33
2023-03-01T08:55:11.534Z,20.30
2023-03-01T08:57:41.048Z,21.07
2023-03-01T09:00:12.526Z,20.83
2023-03-01T09:02:43.205Z,20.00
2023-03-01T09:05:11.025Z,20.63
2023-03-01T09:07:40.029Z,19.93
2023-03-01T09:10:08.127Z,20.33
2023-03-01T09:12:35.500Z,20.23
2023-03-01T09:15:03.289Z,19.77
2023-03-01T09:17:32.389Z,20.40
2023-03-01T09:20:02.071Z,19.30
2023-03-01T09:22:29.482Z,19.03
2023-03-01T09:25:00.361Z,19.60
2023-03-01T09:27:28.116Z,18.67
2023-03-01T09:29:57.294Z,18.33
2023-03-01T09:32:25.478Z,19.20
2023-03-01T09:35:06.170Z,18.53
2023-03-01T09:37:34.042Z,18.73
2023-03-01T09:40:02.933Z,18.03
2023-03-01T09:42:32.541Z,18.47
2023-03-01T09:45:02.776Z,18.27
2023-03-01T09:47:32.355Z,18.77
2023-03-01T09:50:04.242Z,17.63
2023-03-01T09:52:37.223Z,18.13
2023-03-01T09:55:10.157Z,16.97
2023-03-01T09:57:40.153Z,17.53
2023-03-01T10:00:16.310Z,17.23
2023-03-01T10:02:45.861Z,18.53
2023-03-01T10:05:24.309Z,18.10
2023-03-01T10:07:57.801Z,18.50
2023-03-01T10:10:37.922Z,19.03
2023-03-01T10:13:10.478Z,19.17
2023-03-01T10:15:40.112Z,17.50
2023-03-01T10:18:13.065Z,17.47
2023-03-01T10:20:45.665Z,18.53
2023-03-01T10:23:14.802Z,18.57
2023-03-01T10:25:49.208Z,18.47
2023-03-01T10:28:20.719Z,17.97
2023-03-01T10:30:55.152Z,17.97
2023-03-01T10:33:24.609Z,17.33
2023-03-01T10:35:55.772Z,17.50
2023-03-01T10:38:23.230Z,17.87
2023-03-01T10:40:57.958Z,16.87
2023-03-01T10:43:25.484Z,17.50
2023-03-01T10:45:55.886Z,17.50
2023-03-01T10:48:26.650Z,17.23
2023-03-01T10:51:07.692Z,19.07
2023-03-01T10:53:36.461Z,18.13
2023-03-01T10:56:07.121Z,18.50
2023-03-01T10:58:36.012Z,18.50
2023-03-01T11:01:06.238Z,18.43
2023-03-01T11:03:34.656Z,18.20
2023-03-01T11:06:06.075Z,18.70
2023-03-01T11:08:38.416Z,18.87
2023-03-01T11:11:18.168Z,18.40
2023-03-01T11:13:53.190Z,18.37
2023-03-01T11:16:26.408Z,18.33
2023-03-01T11:19:15.072Z,17.67
2023-03-01T11:21:46.852Z,18.40
2023-03-01T11:24:16.841Z,18.50
2023-03-01T11:26:46.645Z,19.60
2023-03-01T11:29:17.529Z,17.73
2023-03-01T11:31:57.402Z,19.17
2023-03-01T11:34:29.677Z,18.33
2023-03-01T11:37:01.517Z,18.43
2023-03-01T11:39:32.834Z,18.93
2023-03-01T11:42:18.136Z,18.37
2023-03-01T11:44:48.735Z,19.97
2023-03-01T11:47:22.343Z,18.23
2023-03-01T11:50:07.793Z,18.50
2023-03-01T11:52:41.447Z,17.50
2023-03-01T11:55:17.209Z,18.40
2023-03-01T11:57:49.008Z,19.30
2023-03-01T12:00:22.659Z,20.23
2023-03-01T12:03:12.449Z,18.63
2023-03-01T12:06:04.318Z,18.60
2023-03-01T12:08:37.602Z,17.93
2023-03-01T12:11:11.621Z,19.87
2023-03-01T12:13:55.260Z,18.50
2023-03-01T12:16:39.657Z,18.43
2023-03-01T12:19:23.432Z,17.93
2023-03-01T12:22:08.203Z,18.27
2023-03-01T12:24:44.192Z,19.57
2023-03-01T12:27:20.467Z,18.17
2023-03-01T12:29:53.724Z,18.53
2023-03-01T12:32:30.897Z,18.53
2023-03-01T12:35:06.274Z,17.63
2023-03-01T12:37:38.151Z,18.53
2023-03-01T12:40:18.433Z,17.57
2023-03-01T12:42:52.785Z,18.57
2023-03-01T12:45:34.901Z,18.50
2023-03-01T12:48:11.072Z,18.20
2023-03-01T12:50:41.441Z,18.73
2023-03-01T12:53:17.523Z,18.57
2023-03-01T12:55:46.700Z,18.97
2023-03-01T12:58:27.148Z,18.43
2023-03-01T13:01:02.522Z,18.93
2023-03-01T13:03:35.706Z,18.50
2023-03-01T13:06:10.407Z,18.93
2023-03-01T13:08:41.139Z,18.47
2023-03-01T13:11:14.713Z,18.93
2023-03-01T13:13:42.100Z,18.60
2023-03-01T13:16:24.255Z,18.93
2023-03-01T13:18:51.672Z,17.93
2023-03-01T13:21:31.774Z,17.93
2023-03-01T13:23:59.249Z,17.93
2023-03-01T13:26:28.072Z,18.17
2023-03-01T13:29:01.544Z,17.87
2023-03-01T13:32:07.953Z,18.50
2023-03-01T13:34:43.527Z,17.63
2023-03-01T13:37:12.123Z,18.73
2023-03-01T13:39:42.046Z,19.70
2023-03-01T13:42:24.706Z,18.97
2023-03-01T13:44:54.412Z,18.47
2023-03-01T13:47:24.200Z,18.47
2023-03-01T13:49:54.771Z,19.17
2023-03-01T13:52:32.817Z,20.97
2023-03-01T13:55:02.837Z,19.63
2023-03-01T13:57:34.985Z,18.07
2023-03-01T14:00:05.623Z,19.33
2023-03-01T14:02:35.483Z,17.93
2023-03-01T14:05:03.785Z,19.80
2023-03-01T14:07:31.762Z,20.87
2023-03-01T14:10:02.181Z,19.23
2023-03-01T14:12:37.682Z,18.03
2023-03-01T14:15:08.687Z,17.97
2023-03-01T14:17:42.457Z,17.67
2023-03-01T14:20:16.174Z,18.07
2023-03-01T14:22:45.331Z,17.73
2023-03-01T14:25:24.197Z,17.93
2023-03-01T14:27:57.622Z,18.07
2023-03-01T14:30:27.642Z,17.43
2023-03-01T14:32:56.291Z,17.50
2023-03-01T14:35:25.302Z,17.27
2023-03-01T14:37:54.511Z,17.30
2023-03-01T14:40:25.610Z,16.20
2023-03-01T14:42:53.717Z,18.13
2023-03-01T14:45:21.483Z,18.03
2023-03-01T14:47:50.292Z,17.43
2023-03-01T14:50:23.205Z,18.27
2023-03-01T14:52:52.090Z,18.20
2023-03-01T14:55:20.965Z,18.00
2023-03-01T14:57:49.830Z,19.87
2023-03-01T15:00:20.820Z,18.07
2023-03-01T15:02:52.783Z,22.33
2023-03-01T15:05:26.714Z,16.77
2023-03-01T15:07:55.516Z,16.97
2023-03-01T15:10:24.286Z,16.53
2023-03-01T15:12:53.901Z,16.90
2023-03-01T15:15:38.275Z,17.37
2023-03-01T15:18:16.553Z,16.60
2023-03-01T15:20:44.988Z,16.90
2023-03-01T15:23:20.324Z,16.93
2023-03-01T15:25:48.014Z,17.47
2023-03-01T15:28:21.232Z,17.33
2023-03-01T15:30:54.617Z,16.40
2023-03-01T15:33:30.585Z,17.77
2023-03-01T15:36:00.978Z,17.17
2023-03-01T15:38:36.069Z,17.63
2023-03-01T15:41:04.466Z,17.03
2023-03-01T15:43:39.242Z,18.83
2023-03-01T15:46:07.614Z,18.53
2023-03-01T15:48:36.779Z,16.73
2023-03-01T15:51:04.706Z,17.70
2023-03-01T15:53:33.054Z,18.30
2023-03-01T15:56:01.517Z,17.83
2023-03-01T15:58:28.926Z,18.77
2023-03-01T16:01:01.147Z,17.00
2023-03-01T16:03:30.075Z,18.03
2023-03-01T16:05:58.788Z,18.33
2023-03-01T16:08:26.785Z,17.83
2023-03-01T16:10:55.507Z,17.90
2023-03-01T16:13:23.038Z,17.70
2023-03-01T16:15:51.070Z,18.20
2023-03-01T16:18:19.216Z,18.33
2023-03-01T16:20:49.181Z,18.63
2023-03-01T16:23:18.638Z,18.60
2023-03-01T16:25:46.012Z,17.73
2023-03-01T16:28:15.313Z,17.83
2023-03-01T16:30:47.991Z,17.57
2023-03-01T16:33:26.897Z,17.90
2023-03-01T16:36:02.895Z,16.90
2023-03-01T16:38:32.900Z,17.50
2023-03-01T16:41:00.781Z,18.20
2023-03-01T16:43:30.164Z,17.73
2023-03-01T16:45:57.692Z,18.07
2023-03-01T16:48:25.415Z,18.10
2023-03-01T16:51:00.493Z,18.57
2023-03-01T16:53:29.532Z,17.33
2023-03-01T16:55:59.635Z,18.70
2023-03-01T16:58:30.217Z,17.57
2023-03-01T17:00:58.184Z,18.40
2023-03-01T17:03:29.866Z,18.90
2023-03-01T17:05:58.397Z,18.93
2023-03-01T17:08:25.847Z,18.43
2023-03-01T17:10:53.250Z,18.80
2023-03-01T17:13:22.352Z,19.40
2023-03-01T17:15:51.041Z,19.33
2023-03-01T17:18:19.201Z,20.30
2023-03-01T17:20:47.868Z,19.70
2023-03-01T17:23:15.603Z,19.67
2023-03-01T17:25:45.172Z,18.93
2023-03-01T17:28:12.630Z,19.80
2023-03-01T17:30:49.183Z,19.57
2023-03-01T17:33:17.017Z,18.63
2023-03-01T17:35:47.472Z,18.60
2023-03-01T17:38:15.839Z,18.93
2023-03-01T17:40:46.514Z,18.63
2023-03-01T17:43:16.268Z,18.90
2023-03-01T17:45:49.081Z,18.23
2023-03-01T17:48:17.159Z,19.53
2023-03-01T17:50:45.876Z,19.37
2023-03-01T17:53:13.654Z,18.37
2023-03-01T17:55:42.521Z,18.43
2023-03-01T17:58:11.003Z,19.20
2023-03-01T18:00:42.259Z,18.70
2023-03-01T18:03:15.220Z,20.73
2023-03-01T18:05:43.367Z,19.17
2023-03-01T18:08:10.792Z,21.83
2023-03-01T18:10:40.739Z,22.50
2023-03-01T18:13:09.237Z,35.00
2023-03-01T18:15:37.768Z,29.90
2023-03-01T18:18:06.079Z,29.67
2023-03-01T18:20:34.832Z,26.63
2023-03-01T18:23:03.087Z,25.33
2023-03-01T18:25:32.239Z,29.57
2023-03-01T18:28:01.915Z,35.00
2023-03-01T18:30:29.441Z,26.10
2023-03-01T18:32:56.831Z,21.80
2023-03-01T18:35:26.224Z,20.90
2023-03-01T18:37:55.655Z,19.23
2023-03-01T18:40:25.968Z,19.43
2023-03-01T18:42:55.917Z,19.73
2023-03-01T18:45:23.333Z,19.63
2023-03-01T18:47:51.037Z,19.00
2023-03-01T18:50:18.734Z,20.40
2023-03-01T18:52:46.567Z,19.77
2023-03-01T18:55:15.588Z,19.17
2023-03-01T18:57:43.311Z,21.77
2023-03-01T19:00:13.070Z,20.00
2023-03-01T19:02:40.530Z,19.73
2023-03-01T19:05:09.614Z,19.07
2023-03-01T19:07:37.026Z,19.53
2023-03-01T19:10:05.201Z,19.23
2023-03-01T19:12:35.640Z,20.67
2023-03-01T19:15:03.386Z,19.20
2023-03-01T19:17:32.882Z,20.07
2023-03-01T19:20:00.327Z,20.40
2023-03-01T19:22:28.291Z,21.50
2023-03-01T19:24:56.076Z,20.17
2023-03-01T19:27:26.232Z,20.57
2023-03-01T19:29:55.676Z,20.37
2023-03-01T19:32:23.077Z,20.80
2023-03-01T19:34:51.869Z,19.63
2023-03-01T19:37:19.588Z,19.47
2023-03-01T19:39:48.087Z,20.63
2023-03-01T19:42:16.076Z,19.93
2023-03-01T19:44:44.061Z,20.23
2023-03-01T19:47:13.194Z,19.80
2023-03-01T19:49:41.629Z,19.47
2023-03-01T19:52:09.017Z,19.93
2023-03-01T19:54:36.446Z,19.67
2023-03-01T19:57:04.649Z,19.53
2023-03-01T19:59:33.179Z,18.87
2023-03-01T20:02:01.701Z,20.10
2023-03-01T20:04:31.687Z,20.20
2023-03-01T20:07:00.327Z,19.20
2023-03-01T20:09:29.174Z,18.90
2023-03-01T20:11:57.485Z,18.77
2023-03-01T20:14:25.265Z,18.37
2023-03-01T20:16:52.917Z,18.77
2023-03-01T20:19:22.969Z,18.93
2023-03-01T20:21:53.841Z,18.93
2023-03-01T20:24:21.274Z,17.97
2023-03-01T20:26:48.721Z,19.23
2023-03-01T20:29:16.439Z,17.97
2023-03-01T20:31:44.393Z,18.00
2023-03-01T20:34:12.053Z,18.70
2023-03-01T20:36:41.201Z,17.83
2023-03-01T20:39:11.707Z,19.73
2023-03-01T20:41:41.112Z,18.57
2023-03-01T20:44:09.658Z,23.73
2023-03-01T20:46:40.120Z,21.70
2023-03-01T20:49:08.177Z,20.67
2023-03-01T20:51:36.249Z,19.70
2023-03-01T20:54:03.917Z,19.47
2023-03-01T20:56:33.292Z,17.60
2023-03-01T20:59:05.452Z,18.70
2023-03-01T21:01:34.286Z,21.83
2023-03-01T21:04:01.818Z,19.47
2023-03-01T21:06:30.546Z,20.03
2023-03-01T21:08:58.456Z,20.13
2023-03-01T21:11:26.045Z,19.07
2023-03-01T21:13:55.916Z,19.40
2023-03-01T21:16:24.400Z,18.70
2023-03-01T21:18:52.850Z,19.50
2023-03-01T21:21:20.945Z,19.27
2023-03-01T21:23:49.086Z,19.30
2023-03-01T21:26:19.212Z,18.77
2023-03-01T21:28:48.585Z,18.73
2023-03-01T21:31:18.652Z,18.63
2023-03-01T21:33:47.551Z,17.37
2023-03-01T21:36:17.031Z,18.30
2023-03-01T21:38:46.554Z,18.00
2023-03-01T21:41:16.254Z,17.67
2023-03-01T21:43:45.968Z,18.30
2023-03-01T21:46:15.020Z,18.67
2023-03-01T21:48:46.654Z,17.70
2023-03-01T21:51:16.380Z,18.23
2023-03-01T21:53:44.922Z,18.37
2023-03-01T21:56:15.902Z,19.07
2023-03-01T21:58:43.318Z,18.90
2023-03-01T22:01:12.240Z,19.20
2023-03-01T22:03:45.646Z,20.03
2023-03-01T22:06:19.502Z,19.43
2023-03-01T22:08:48.595Z,19.17
2023-03-01T22:11:17.788Z,19.90
2023-03-01T22:13:45.288Z,19.33
2023-03-01T22:16:12.838Z,17.90
2023-03-01T22:18:40.374Z,18.17
2023-03-01T22:21:09.371Z,17.30
2023-03-01T22:23:39.035Z,17.77
2023-03-01T22:26:07.397Z,17.60
2023-03-01T22:28:35.152Z,19.53
2023-03-01T22:31:05.026Z,17.90
2023-03-01T22:33:33.448Z,18.47
2023-03-01T22:36:00.971Z,19.00
2023-03-01T22:38:28.435Z,17.80
2023-03-01T22:41:01.715Z,19.10
2023-03-01T22:43:29.789Z,19.53
2023-03-01T22:45:58.210Z,18.83
2023-03-01T22:48:26.797Z,18.90
2023-03-01T22:50:54.171Z,20.83
2023-03-01T22:53:21.690Z,18.80
2023-03-01T22:55:50.495Z,19.53
2023-03-01T22:58:20.362Z,19.13
2023-03-01T23:00:51.340Z,19.60
2023-03-01T23:03:20.562Z,19.40
2023-03-01T23:05:48.469Z,19.33
2023-03-01T23:08:17.195Z,19.43
2023-03-01T23:10:44.719Z,19.30
2023-03-01T23:13:13.295Z,19.40
2023-03-01T23:15:45.954Z,20.40
2023-03-01T23:18:13.955Z,19.37
2023-03-01T23:20:41.732Z,20.03
2023-03-01T23:23:10.513Z,19.83
2023-03-01T23:25:38.083Z,19.83
2023-03-01T23:28:06.295Z,19.37
2023-03-01T23:30:34.015Z,20.33
2023-03-01T23:33:05.774Z,19.27
2023-03-01T23:35:39.042Z,19.97
2023-03-01T23:38:07.344Z,20.20
2023-03-01T23:40:35.512Z,20.73
2023-03-01T23:43:03.890Z,19.03
2023-03-01T23:45:34.334Z,19.10
2023-03-01T23:48:05.862Z,19.53
2023-03-01T23:50:41.562Z,19.77
2023-03-01T23:53:11.049Z,18.87
2023-03-01T23:55:40.080Z,20.90
2023-03-01T23:58:09.733Z,21.03
